sensor_id;sensor_type;location;lat;lon;timestamp;pressure;altitude;pressure_sealevel;temperature;humidity
20115;BME280;10218;42.874;25.320;2023-01-26T00:01:28;97973.09;;;1.78;100.00
20115;BME280;10218;42.874;25.320;2023-01-26T00:03:56;97973.16;;;1.76;100.00
20115;BME280;10218;42.874;25.320;2023-01-26T00:06:24;97973.22;;;1.48;100.00
20115;BME280;10218;42.874;25.320;2023-01-26T00:08:54;97972.47;;;1.87;100.00
20115;BME280;10218;42.874;25.320;2023-01-26T00:11:24;97965.00;;;2.20;100.00
20115;BME280;10218;42.874;25.320;2023-01-26T00:13:53;97953.88;;;1.76;100.00
20115;BME280;10218;42.874;25.320;2023-01-26T00:16:20;97958.84;;;2.07;100.00
20115;BME280;10218;42.874;25.320;2023-01-26T00:18:48;97959.72;;;2.07;100.00
20115;BME280;10218;42.874;25.320;2023-01-26T00:21:17;97964.00;;;1.55;100.00
20115;BME280;10218;42.874;25.320;2023-01-26T00:23:47;97958.28;;;1.75;100.00
20115;BME280;10218;42.874;25.320;2023-01-26T00:26:17;97952.56;;;1.83;100.00
20115;BME280;10218;42.874;25.320;2023-01-26T00:28:45;97940.81;;;2.13;100.00
20115;BME280;10218;42.874;25.320;2023-01-26T00:31:14;97942.03;;;1.95;100.00
20115;BME280;10218;42.874;25.320;2023-01-26T00:33:42;97941.25;;;2.07;100.00
20115;BME280;10218;42.874;25.320;2023-01-26T00:36:10;97933.75;;;2.01;100.00
20115;BME280;10218;42.874;25.320;2023-01-26T00:38:39;97918.41;;;2.21;100.00
20115;BME280;10218;42.874;25.320;2023-01-26T00:41:07;97929.25;;;1.89;100.00
20115;BME280;10218;42.874;25.320;2023-01-26T00:43:34;97928.37;;;1.76;100.00
20115;BME280;10218;42.874;25.320;2023-01-26T00:46:01;97927.47;;;2.17;100.00
20115;BME280;10218;42.874;25.320;2023-01-26T00:48:29;97934.97;;;2.23;100.00
20115;BME280;10218;42.874;25.320;2023-01-26T00:50:56;97933.50;;;2.31;100.00
20115;BME280;10218;42.874;25.320;2023-01-26T00:53:23;97928.31;;;2.30;100.00
20115;BME280;10218;42.874;25.320;2023-01-26T00:55:52;97935.22;;;2.05;100.00
20115;BME280;10218;42.874;25.320;2023-01-26T00:58:21;97934.28;;;2.06;100.00
20115;BME280;10218;42.874;25.320;2023-01-26T01:00:49;97935.00;;;1.96;100.00
20115;BME280;10218;42.874;25.320;2023-01-26T01:03:16;97929.66;;;2.10;100.00
20115;BME280;10218;42.874;25.320;2023-01-26T01:05:46;97918.00;;;2.27;100.00
20115;BME280;10218;42.874;25.320;2023-01-26T01:08:13;97924.12;;;2.40;100.00
20115;BME280;10218;42.874;25.320;2023-01-26T01:10:41;97916.69;;;1.80;100.00
20115;BME280;10218;42.874;25.320;2023-01-26T01:13:08;97915.41;;;1.73;100.00
20115;BME280;10218;42.874;25.320;2023-01-26T01:15:37;97893.69;;;2.09;100.00
20115;BME280;10218;42.874;25.320;2023-01-26T01:18:04;97903.97;;;2.26;100.00
20115;BME280;10218;42.874;25.320;2023-01-26T01:20:31;97894.97;;;1.50;100.00
20115;BME280;10218;42.874;25.320;2023-01-26T01:22:58;97905.16;;;1.95;100.00
20115;BME280;10218;42.874;25.320;2023-01-26T01:25:26;97903.53;;;1.80;100.00
20115;BME280;10218;42.874;25.320;2023-01-26T01:27:53;97895.06;;;2.14;100.00
20115;BME280;10218;42.874;25.320;2023-01-26T01:30:20;97880.59;;;1.95;100.00
20115;BME280;10218;42.874;25.320;2023-01-26T01:32:47;97881.41;;;2.22;100.00
20115;BME280;10218;42.874;25.320;2023-01-26T01:35:17;97883.81;;;2.12;100.00
20115;BME280;10218;42.874;25.320;2023-01-26T01:37:44;97878.66;;;1.84;100.00
20115;BME280;10218;42.874;25.320;2023-01-26T01:40:12;97872.38;;;1.99;100.00
20115;BME280;10218;42.874;25.320;2023-01-26T01:42:46;97874.41;;;1.42;100.00
20115;BME280;10218;42.874;25.320;2023-01-26T01:45:37;97866.16;;;1.61;100.00
20115;BME280;10218;42.874;25.320;2023-01-26T01:48:12;97858.31;;;2.26;100.00
20115;BME280;10218;42.874;25.320;2023-01-26T01:50:42;97858.53;;;2.48;100.00
20115;BME280;10218;42.874;25.320;2023-01-26T01:53:13;97861.16;;;1.83;100.00
20115;BME280;10218;42.874;25.320;2023-01-26T01:55:44;97861.69;;;1.88;100.00
20115;BME280;10218;42.874;25.320;2023-01-26T01:58:12;97852.44;;;1.95;100.00
20115;BME280;10218;42.874;25.320;2023-01-26T02:00:40;97845.28;;;1.58;100.00
20115;BME280;10218;42.874;25.320;2023-01-26T02:03:08;97864.47;;;1.60;100.00
20115;BME280;10218;42.874;25.320;2023-01-26T02:08:28;97852.50;;;2.21;100.00
20115;BME280;10218;42.874;25.320;2023-01-26T02:10:59;97855.41;;;2.03;100.00
20115;BME280;10218;42.874;25.320;2023-01-26T02:13:29;97849.75;;;1.70;100.00
20115;BME280;10218;42.874;25.320;2023-01-26T02:15:59;97846.25;;;1.57;100.00
20115;BME280;10218;42.874;25.320;2023-01-26T02:18:27;97847.00;;;1.18;100.00
20115;BME280;10218;42.874;25.320;2023-01-26T02:20:59;97837.69;;;1.26;100.00
20115;BME280;10218;42.874;25.320;2023-01-26T02:24:05;97805.34;;;1.91;100.00
20115;BME280;10218;42.874;25.320;2023-01-26T02:26:34;97834.94;;;1.94;100.00
20115;BME280;10218;42.874;25.320;2023-01-26T02:29:06;97820.94;;;1.94;100.00
20115;BME280;10218;42.874;25.320;2023-01-26T02:31:38;97822.84;;;2.04;100.00
20115;BME280;10218;42.874;25.320;2023-01-26T02:34:06;97821.63;;;1.70;100.00
20115;BME280;10218;42.874;25.320;2023-01-26T02:36:34;97804.41;;;1.92;100.00
20115;BME280;10218;42.874;25.320;2023-01-26T02:39:19;97808.50;;;2.08;100.00
20115;BME280;10218;42.874;25.320;2023-01-26T02:41:49;97813.59;;;2.11;100.00
20115;BME280;10218;42.874;25.320;2023-01-26T02:44:38;97805.66;;;1.99;100.00
20115;BME280;10218;42.874;25.320;2023-01-26T02:47:14;97800.72;;;2.07;100.00
20115;BME280;10218;42.874;25.320;2023-01-26T02:49:42;97801.78;;;2.30;100.00
20115;BME280;10218;42.874;25.320;2023-01-26T02:52:22;97806.09;;;2.05;100.00
20115;BME280;10218;42.874;25.320;2023-01-26T02:54:52;97798.25;;;1.79;100.00
20115;BME280;10218;42.874;25.320;2023-01-26T02:57:38;97802.25;;;1.84;100.00
20115;BME280;10218;42.874;25.320;2023-01-26T03:00:14;97798.59;;;1.99;100.00
20115;BME280;10218;42.874;25.320;2023-01-26T03:02:43;97800.72;;;2.20;100.00
20115;BME280;10218;42.874;25.320;2023-01-26T03:05:11;97788.41;;;2.33;100.00
20115;BME280;10218;42.874;25.320;2023-01-26T03:07:39;97791.88;;;2.21;100.00
20115;BME280;10218;42.874;25.320;2023-01-26T03:10:08;97791.97;;;2.06;100.00
20115;BME280;10218;42.874;25.320;2023-01-26T03:12:35;97787.41;;;2.08;100.00
20115;BME280;10218;42.874;25.320;2023-01-26T03:15:03;97780.69;;;2.04;100.00
20115;BME280;10218;42.874;25.320;2023-01-26T03:17:50;97783.31;;;2.30;100.00
20115;BME280;10218;42.874;25.320;2023-01-26T03:20:17;97774.56;;;2.29;100.00
20115;BME280;10218;42.874;25.320;2023-01-26T03:23:03;97745.03;;;2.37;100.00
20115;BME280;10218;42.874;25.320;2023-01-26T03:25:51;97765.59;;;2.44;100.00
20115;BME280;10218;42.874;25.320;2023-01-26T03:28:38;97758.56;;;2.07;100.00
20115;BME280;10218;42.874;25.320;2023-01-26T03:31:06;97760.09;;;1.84;100.00
20115;BME280;10218;42.874;25.320;2023-01-26T03:33:33;97755.69;;;1.85;100.00
20115;BME280;10218;42.874;25.320;2023-01-26T03:36:01;97756.12;;;2.17;100.00
20115;BME280;10218;42.874;25.320;2023-01-26T03:38:28;97751.81;;;2.15;100.00
20115;BME280;10218;42.874;25.320;2023-01-26T03:40:57;97749.16;;;2.15;100.00
20115;BME280;10218;42.874;25.320;2023-01-26T03:43:43;97734.69;;;2.46;100.00
20115;BME280;10218;42.874;25.320;2023-01-26T03:46:30;97743.06;;;2.02;100.00
20115;BME280;10218;42.874;25.320;2023-01-26T03:49:16;97743.78;;;1.92;100.00
20115;BME280;10218;42.874;25.320;2023-01-26T03:52:03;97739.69;;;2.00;100.00
20115;BME280;10218;42.874;25.320;2023-01-26T03:54:49;97731.34;;;2.06;100.00
20115;BME280;10218;42.874;25.320;2023-01-26T03:57:36;97737.97;;;2.25;100.00
20115;BME280;10218;42.874;25.320;2023-01-26T04:00:04;97738.00;;;2.12;100.00
20115;BME280;10218;42.874;25.320;2023-01-26T04:02:38;97727.66;;;1.96;100.00
20115;BME280;10218;42.874;25.320;2023-01-26T04:05:24;97724.78;;;2.25;100.00
20115;BME280;10218;42.874;25.320;2023-01-26T04:08:11;97722.59;;;1.93;100.00
20115;BME280;10218;42.874;25.320;2023-01-26T04:10:50;97723.88;;;1.88;100.00
20115;BME280;10218;42.874;25.320;2023-01-26T04:13:18;97724.47;;;2.29;100.00
20115;BME280;10218;42.874;25.320;2023-01-26T04:16:07;97726.72;;;2.23;100.00
20115;BME280;10218;42.874;25.320;2023-01-26T04:18:54;97725.19;;;2.44;100.00
20115;BME280;10218;42.874;25.320;2023-01-26T04:21:40;97719.00;;;2.20;100.00
20115;BME280;10218;42.874;25.320;2023-01-26T04:24:07;97715.31;;;1.71;100.00
20115;BME280;10218;42.874;25.320;2023-01-26T04:26:43;97707.84;;;1.65;100.00
20115;BME280;10218;42.874;25.320;2023-01-26T04:29:13;97717.13;;;1.96;100.00
20115;BME280;10218;42.874;25.320;2023-01-26T04:31:42;97705.97;;;1.67;100.00
20115;BME280;10218;42.874;25.320;2023-01-26T04:34:11;97705.84;;;2.07;100.00
20115;BME280;10218;42.874;25.320;2023-01-26T04:36:39;97697.28;;;2.03;100.00
20115;BME280;10218;42.874;25.320;2023-01-26T04:39:08;97708.06;;;1.75;100.00
20115;BME280;10218;42.874;25.320;2023-01-26T04:41:36;97695.94;;;1.60;100.00
20115;BME280;10218;42.874;25.320;2023-01-26T04:44:03;97687.94;;;1.87;100.00
20115;BME280;10218;42.874;25.320;2023-01-26T04:46:32;97666.75;;;2.01;100.00
20115;BME280;10218;42.874;25.320;2023-01-26T04:49:01;97684.13;;;2.16;100.00
20115;BME280;10218;42.874;25.320;2023-01-26T04:51:28;97679.28;;;1.97;100.00
20115;BME280;10218;42.874;25.320;2023-01-26T04:53:55;97679.19;;;1.86;100.00
20115;BME280;10218;42.874;25.320;2023-01-26T04:56:25;97687.03;;;2.37;100.00
20115;BME280;10218;42.874;25.320;2023-01-26T04:58:54;97660.72;;;2.11;100.00
20115;BME280;10218;42.874;25.320;2023-01-26T05:01:21;97681.44;;;2.29;100.00
20115;BME280;10218;42.874;25.320;2023-01-26T05:03:49;97686.69;;;1.92;100.00
20115;BME280;10218;42.874;25.320;2023-01-26T05:06:17;97683.09;;;1.81;100.00
20115;BME280;10218;42.874;25.320;2023-01-26T05:08:45;97680.53;;;1.54;100.00
20115;BME280;10218;42.874;25.320;2023-01-26T05:11:12;97668.06;;;2.19;100.00
20115;BME280;10218;42.874;25.320;2023-01-26T05:13:40;97667.88;;;2.09;100.00
20115;BME280;10218;42.874;25.320;2023-01-26T05:16:07;97676.56;;;1.86;100.00
20115;BME280;10218;42.874;25.320;2023-01-26T05:18:35;97680.12;;;1.60;100.00
20115;BME280;10218;42.874;25.320;2023-01-26T05:21:03;97662.41;;;2.00;100.00
20115;BME280;10218;42.874;25.320;2023-01-26T05:23:30;97663.69;;;1.94;100.00
20115;BME280;10218;42.874;25.320;2023-01-26T05:25:59;97671.81;;;1.66;100.00
20115;BME280;10218;42.874;25.320;2023-01-26T05:28:27;97661.78;;;1.84;100.00
20115;BME280;10218;42.874;25.320;2023-01-26T05:30:54;97660.94;;;1.83;100.00
20115;BME280;10218;42.874;25.320;2023-01-26T05:33:22;97651.44;;;1.93;100.00
20115;BME280;10218;42.874;25.320;2023-01-26T05:35:50;97657.72;;;2.29;100.00
20115;BME280;10218;42.874;25.320;2023-01-26T05:38:19;97643.22;;;2.23;100.00
20115;BME280;10218;42.874;25.320;2023-01-26T05:40:46;97636.44;;;2.19;100.00
20115;BME280;10218;42.874;25.320;2023-01-26T05:43:14;97648.34;;;2.25;100.00
20115;BME280;10218;42.874;25.320;2023-01-26T05:45:41;97660.13;;;1.57;100.00
20115;BME280;10218;42.874;25.320;2023-01-26T05:48:09;97643.63;;;2.04;100.00
20115;BME280;10218;42.874;25.320;2023-01-26T05:50:36;97636.19;;;2.35;100.00
20115;BME280;10218;42.874;25.320;2023-01-26T05:53:05;97636.44;;;2.32;100.00
20115;BME280;10218;42.874;25.320;2023-01-26T05:55:34;97633.47;;;2.24;100.00
20115;BME280;10218;42.874;25.320;2023-01-26T05:58:01;97630.75;;;2.25;100.00
20115;BME280;10218;42.874;25.320;2023-01-26T06:00:28;97632.75;;;2.22;100.00
20115;BME280;10218;42.874;25.320;2023-01-26T06:02:57;97637.03;;;2.35;100.00
20115;BME280;10218;42.874;25.320;2023-01-26T06:05:24;97626.34;;;2.13;100.00
20115;BME280;10218;42.874;25.320;2023-01-26T06:07:53;97628.72;;;1.92;100.00
20115;BME280;10218;42.874;25.320;2023-01-26T06:10:21;97627.25;;;1.76;100.00
20115;BME280;10218;42.874;25.320;2023-01-26T06:12:50;97616.37;;;1.80;100.00
20115;BME280;10218;42.874;25.320;2023-01-26T06:15:17;97605.91;;;2.04;100.00
20115;BME280;10218;42.874;25.320;2023-01-26T06:17:47;97607.78;;;2.14;100.00
20115;BME280;10218;42.874;25.320;2023-01-26T06:20:16;97604.47;;;1.75;100.00
20115;BME280;10218;42.874;25.320;2023-01-26T06:22:43;97600.87;;;2.61;100.00
20115;BME280;10218;42.874;25.320;2023-01-26T06:25:12;97595.66;;;2.48;100.00
20115;BME280;10218;42.874;25.320;2023-01-26T06:27:40;97599.87;;;2.14;100.00
20115;BME280;10218;42.874;25.320;2023-01-26T06:30:09;97575.13;;;2.04;100.00
20115;BME280;10218;42.874;25.320;2023-01-26T06:32:37;97600.37;;;2.20;100.00
20115;BME280;10218;42.874;25.320;2023-01-26T06:35:04;97590.50;;;2.10;100.00
20115;BME280;10218;42.874;25.320;2023-01-26T06:37:32;97585.16;;;1.99;100.00
20115;BME280;10218;42.874;25.320;2023-01-26T06:40:01;97591.59;;;2.32;100.00
20115;BME280;10218;42.874;25.320;2023-01-26T06:42:28;97591.38;;;1.98;100.00
20115;BME280;10218;42.874;25.320;2023-01-26T06:44:55;97588.97;;;1.95;100.00
20115;BME280;10218;42.874;25.320;2023-01-26T06:47:26;97586.69;;;2.14;100.00
20115;BME280;10218;42.874;25.320;2023-01-26T06:49:53;97581.03;;;2.08;100.00
20115;BME280;10218;42.874;25.320;2023-01-26T06:52:25;97580.66;;;2.49;100.00
20115;BME280;10218;42.874;25.320;2023-01-26T06:54:57;97578.44;;;2.32;100.00
20115;BME280;10218;42.874;25.320;2023-01-26T06:57:25;97580.88;;;2.22;100.00
20115;BME280;10218;42.874;25.320;2023-01-26T06:59:52;97562.59;;;2.32;100.00
20115;BME280;10218;42.874;25.320;2023-01-26T07:02:21;97581.84;;;2.08;100.00
20115;BME280;10218;42.874;25.320;2023-01-26T07:04:49;97589.47;;;2.13;100.00
20115;BME280;10218;42.874;25.320;2023-01-26T07:07:16;97538.84;;;1.71;100.00
20115;BME280;10218;42.874;25.320;2023-01-26T07:09:43;97584.56;;;2.20;100.00
20115;BME280;10218;42.874;25.320;2023-01-26T07:12:10;97581.50;;;2.26;100.00
20115;BME280;10218;42.874;25.320;2023-01-26T07:14:37;97583.09;;;2.28;100.00
20115;BME280;10218;42.874;25.320;2023-01-26T07:17:05;97573.91;;;1.85;100.00
20115;BME280;10218;42.874;25.320;2023-01-26T07:19:32;97568.63;;;1.97;100.00
20115;BME280;10218;42.874;25.320;2023-01-26T07:22:00;97569.56;;;2.33;100.00
20115;BME280;10218;42.874;25.320;2023-01-26T07:24:28;97572.34;;;2.19;100.00
20115;BME280;10218;42.874;25.320;2023-01-26T07:26:55;97550.84;;;2.83;100.00
20115;BME280;10218;42.874;25.320;2023-01-26T07:29:22;97547.97;;;2.28;100.00
20115;BME280;10218;42.874;25.320;2023-01-26T07:31:50;97552.91;;;2.56;100.00
20115;BME280;10218;42.874;25.320;2023-01-26T07:34:17;97547.91;;;2.64;100.00
20115;BME280;10218;42.874;25.320;2023-01-26T07:36:44;97546.31;;;2.62;100.00
20115;BME280;10218;42.874;25.320;2023-01-26T07:39:11;97527.53;;;2.42;100.00
20115;BME280;10218;42.874;25.320;2023-01-26T07:41:38;97552.81;;;1.97;100.00
20115;BME280;10218;42.874;25.320;2023-01-26T07:44:09;97542.91;;;2.25;100.00
20115;BME280;10218;42.874;25.320;2023-01-26T07:46:37;97549.50;;;2.78;100.00
20115;BME280;10218;42.874;25.320;2023-01-26T07:49:06;97535.56;;;3.22;100.00
20115;BME280;10218;42.874;25.320;2023-01-26T07:51:33;97540.22;;;2.61;100.00
20115;BME280;10218;42.874;25.320;2023-01-26T07:54:02;97539.25;;;2.62;100.00
20115;BME280;10218;42.874;25.320;2023-01-26T07:56:29;97535.38;;;2.79;100.00
20115;BME280;10218;42.874;25.320;2023-01-26T07:58:56;97524.19;;;2.75;100.00
20115;BME280;10218;42.874;25.320;2023-01-26T08:01:24;97523.94;;;2.67;100.00
20115;BME280;10218;42.874;25.320;2023-01-26T08:03:51;97525.38;;;3.17;100.00
20115;BME280;10218;42.874;25.320;2023-01-26T08:06:19;97510.88;;;3.78;100.00
20115;BME280;10218;42.874;25.320;2023-01-26T08:08:47;97518.34;;;3.40;100.00
20115;BME280;10218;42.874;25.320;2023-01-26T08:11:19;97519.03;;;3.31;100.00
20115;BME280;10218;42.874;25.320;2023-01-26T08:13:48;97516.00;;;4.45;100.00
20115;BME280;10218;42.874;25.320;2023-01-26T08:16:16;97508.03;;;4.56;100.00
20115;BME280;10218;42.874;25.320;2023-01-26T08:18:45;97522.06;;;4.36;100.00
20115;BME280;10218;42.874;25.320;2023-01-26T08:21:13;97510.00;;;4.43;100.00
20115;BME280;10218;42.874;25.320;2023-01-26T08:23:41;97512.06;;;3.85;100.00
20115;BME280;10218;42.874;25.320;2023-01-26T08:26:10;97520.88;;;2.84;100.00
20115;BME280;10218;42.874;25.320;2023-01-26T08:28:40;97518.53;;;3.26;100.00
20115;BME280;10218;42.874;25.320;2023-01-26T08:31:12;97518.06;;;3.99;100.00
20115;BME280;10218;42.874;25.320;2023-01-26T08:33:41;97511.53;;;4.03;100.00
20115;BME280;10218;42.874;25.320;2023-01-26T08:36:11;97522.03;;;3.37;100.00
20115;BME280;10218;42.874;25.320;2023-01-26T08:38:39;97521.19;;;4.47;100.00
20115;BME280;10218;42.874;25.320;2023-01-26T08:41:06;97514.97;;;3.49;100.00
20115;BME280;10218;42.874;25.320;2023-01-26T08:43:33;97517.84;;;3.79;100.00
20115;BME280;10218;42.874;25.320;2023-01-26T08:46:01;97511.81;;;3.66;100.00
20115;BME280;10218;42.874;25.320;2023-01-26T08:48:29;97507.28;;;3.35;100.00
20115;BME280;10218;42.874;25.320;2023-01-26T08:50:59;97502.91;;;4.01;100.00
20115;BME280;10218;42.874;25.320;2023-01-26T08:53:29;97481.69;;;4.55;100.00
20115;BME280;10218;42.874;25.320;2023-01-26T08:56:00;97497.56;;;4.87;100.00
20115;BME280;10218;42.874;25.320;2023-01-26T08:58:28;97504.34;;;4.05;100.00
20115;BME280;10218;42.874;25.320;2023-01-26T09:00:55;97499.47;;;3.56;100.00
20115;BME280;10218;42.874;25.320;2023-01-26T09:03:23;97497.28;;;3.94;100.00
20115;BME280;10218;42.874;25.320;2023-01-26T09:05:50;97500.19;;;3.91;100.00
20115;BME280;10218;42.874;25.320;2023-01-26T09:08:17;97504.09;;;4.08;100.00
20115;BME280;10218;42.874;25.320;2023-01-26T09:10:44;97499.84;;;4.59;100.00
20115;BME280;10218;42.874;25.320;2023-01-26T09:13:11;97483.66;;;4.94;100.00
20115;BME280;10218;42.874;25.320;2023-01-26T09:15:38;97484.50;;;4.42;100.00
20115;BME280;10218;42.874;25.320;2023-01-26T09:18:05;97485.56;;;5.13;100.00
20115;BME280;10218;42.874;25.320;2023-01-26T09:20:32;97481.84;;;4.21;100.00
20115;BME280;10218;42.874;25.320;2023-01-26T09:22:59;97452.22;;;4.27;100.00
20115;BME280;10218;42.874;25.320;2023-01-26T09:25:27;97476.66;;;4.20;100.00
20115;BME280;10218;42.874;25.320;2023-01-26T09:27:54;97468.41;;;5.28;100.00
20115;BME280;10218;42.874;25.320;2023-01-26T09:30:21;97467.69;;;5.26;100.00
20115;BME280;10218;42.874;25.320;2023-01-26T09:32:50;97460.00;;;5.23;100.00
20115;BME280;10218;42.874;25.320;2023-01-26T09:35:17;97476.81;;;6.13;100.00
20115;BME280;10218;42.874;25.320;2023-01-26T09:37:45;97466.31;;;5.62;100.00
20115;BME280;10218;42.874;25.320;2023-01-26T09:40:20;97469.81;;;5.72;100.00
20115;BME280;10218;42.874;25.320;2023-01-26T09:51:50;97435.53;;;5.10;100.00
20115;BME280;10218;42.874;25.320;2023-01-26T09:54:37;97428.78;;;5.67;100.00
20115;BME280;10218;42.874;25.320;2023-01-26T09:57:40;97425.84;;;4.99;100.00
20115;BME280;10218;42.874;25.320;2023-01-26T10:08:13;97413.59;;;5.29;100.00
20115;BME280;10218;42.874;25.320;2023-01-26T10:10:57;97408.00;;;4.92;100.00
20115;BME280;10218;42.874;25.320;2023-01-26T10:13:27;97405.41;;;5.41;100.00
20115;BME280;10218;42.874;25.320;2023-01-26T10:16:02;97395.88;;;4.99;100.00
20115;BME280;10218;42.874;25.320;2023-01-26T10:18:36;97394.03;;;4.90;100.00
20115;BME280;10218;42.874;25.320;2023-01-26T10:21:07;97391.16;;;5.23;100.00
20115;BME280;10218;42.874;25.320;2023-01-26T10:23:46;97399.84;;;4.42;100.00
20115;BME280;10218;42.874;25.320;2023-01-26T10:26:22;97386.56;;;4.53;100.00
20115;BME280;10218;42.874;25.320;2023-01-26T10:28:50;97381.41;;;5.03;100.00
20115;BME280;10218;42.874;25.320;2023-01-26T10:31:24;97379.03;;;5.00;100.00
20115;BME280;10218;42.874;25.320;2023-01-26T10:33:57;97374.31;;;4.52;100.00
20115;BME280;10218;42.874;25.320;2023-01-26T10:36:29;97366.25;;;5.05;100.00
20115;BME280;10218;42.874;25.320;2023-01-26T10:39:06;97364.66;;;4.21;100.00
20115;BME280;10218;42.874;25.320;2023-01-26T10:41:34;97355.87;;;3.88;100.00
20115;BME280;10218;42.874;25.320;2023-01-26T10:46:40;97344.25;;;4.53;100.00
20115;BME280;10218;42.874;25.320;2023-01-26T10:51:38;97340.34;;;4.57;100.00
20115;BME280;10218;42.874;25.320;2023-01-26T10:54:28;97332.13;;;4.30;100.00
20115;BME280;10218;42.874;25.320;2023-01-26T10:57:25;97336.84;;;4.26;100.00
20115;BME280;10218;42.874;25.320;2023-01-26T10:59:58;97335.69;;;4.91;100.00
20115;BME280;10218;42.874;25.320;2023-01-26T11:02:28;97323.53;;;4.89;100.00
20115;BME280;10218;42.874;25.320;2023-01-26T11:07:43;97314.00;;;5.07;100.00
20115;BME280;10218;42.874;25.320;2023-01-26T11:10:35;97311.41;;;4.86;100.00
20115;BME280;10218;42.874;25.320;2023-01-26T11:13:11;97301.34;;;4.29;100.00
20115;BME280;10218;42.874;25.320;2023-01-26T11:15:41;97296.03;;;5.20;100.00
20115;BME280;10218;42.874;25.320;2023-01-26T11:23:45;97273.44;;;5.06;100.00
20115;BME280;10218;42.874;25.320;2023-01-26T11:30:08;97273.22;;;4.28;100.00
20115;BME280;10218;42.874;25.320;2023-01-26T11:38:04;97247.28;;;5.71;100.00
20115;BME280;10218;42.874;25.320;2023-01-26T11:54:05;97249.37;;;4.79;100.00
20115;BME280;10218;42.874;25.320;2023-01-26T11:56:46;97244.81;;;4.00;100.00
20115;BME280;10218;42.874;25.320;2023-01-26T11:59:23;97245.16;;;3.85;100.00
20115;BME280;10218;42.874;25.320;2023-01-26T12:04:21;97251.91;;;4.20;100.00
20115;BME280;10218;42.874;25.320;2023-01-26T12:07:05;97255.59;;;4.38;100.00
20115;BME280;10218;42.874;25.320;2023-01-26T12:09:55;97256.78;;;3.30;100.00
20115;BME280;10218;42.874;25.320;2023-01-26T12:12:36;97258.03;;;3.79;100.00
20115;BME280;10218;42.874;25.320;2023-01-26T12:15:14;97255.78;;;3.74;100.00
20115;BME280;10218;42.874;25.320;2023-01-26T12:18:09;97246.25;;;4.34;100.00
20115;BME280;10218;42.874;25.320;2023-01-26T12:20:42;97236.59;;;3.61;100.00
20115;BME280;10218;42.874;25.320;2023-01-26T12:23:27;97242.94;;;3.49;100.00
20115;BME280;10218;42.874;25.320;2023-01-26T12:25:59;97234.91;;;4.22;100.00
20115;BME280;10218;42.874;25.320;2023-01-26T12:28:36;97238.00;;;4.27;100.00
20115;BME280;10218;42.874;25.320;2023-01-26T12:33:39;97220.31;;;3.98;100.00
20115;BME280;10218;42.874;25.320;2023-01-26T12:36:25;97222.06;;;4.08;100.00
20115;BME280;10218;42.874;25.320;2023-01-26T12:55:38;97206.63;;;4.84;100.00
20115;BME280;10218;42.874;25.320;2023-01-26T12:58:14;97208.19;;;4.46;100.00
20115;BME280;10218;42.874;25.320;2023-01-26T13:01:12;97204.78;;;4.35;100.00
20115;BME280;10218;42.874;25.320;2023-01-26T13:03:43;97196.53;;;3.56;100.00
20115;BME280;10218;42.874;25.320;2023-01-26T13:14:23;97182.53;;;3.24;100.00
20115;BME280;10218;42.874;25.320;2023-01-26T13:16:51;97182.84;;;3.30;100.00
20115;BME280;10218;42.874;25.320;2023-01-26T13:25:15;97184.66;;;3.92;100.00
20115;BME280;10218;42.874;25.320;2023-01-26T13:27:55;97176.94;;;4.00;100.00
20115;BME280;10218;42.874;25.320;2023-01-26T13:33:22;97173.91;;;4.35;100.00
20115;BME280;10218;42.874;25.320;2023-01-26T13:35:52;97180.75;;;3.45;100.00
20115;BME280;10218;42.874;25.320;2023-01-26T13:38:28;97183.06;;;4.01;100.00
20115;BME280;10218;42.874;25.320;2023-01-26T13:40:57;97168.13;;;3.28;100.00
20115;BME280;10218;42.874;25.320;2023-01-26T13:46:08;97161.12;;;3.59;100.00
20115;BME280;10218;42.874;25.320;2023-01-26T13:48:51;97158.87;;;4.05;100.00
20115;BME280;10218;42.874;25.320;2023-01-26T13:51:25;97151.16;;;4.23;100.00
20115;BME280;10218;42.874;25.320;2023-01-26T13:54:06;97157.03;;;4.26;100.00
20115;BME280;10218;42.874;25.320;2023-01-26T13:56:39;97146.44;;;3.45;100.00
20115;BME280;10218;42.874;25.320;2023-01-26T14:06:51;97135.41;;;3.40;100.00
20115;BME280;10218;42.874;25.320;2023-01-26T14:09:21;97142.41;;;4.02;100.00
20115;BME280;10218;42.874;25.320;2023-01-26T14:11:57;97145.88;;;3.93;100.00
20115;BME280;10218;42.874;25.320;2023-01-26T14:14:30;97131.88;;;3.81;100.00
20115;BME280;10218;42.874;25.320;2023-01-26T14:16:59;97127.28;;;3.73;100.00
20115;BME280;10218;42.874;25.320;2023-01-26T14:19:27;97120.78;;;3.36;100.00
20115;BME280;10218;42.874;25.320;2023-01-26T14:21:57;97120.72;;;3.26;100.00
20115;BME280;10218;42.874;25.320;2023-01-26T14:24:32;97129.13;;;3.62;100.00
20115;BME280;10218;42.874;25.320;2023-01-26T14:27:01;97118.84;;;3.17;100.00
20115;BME280;10218;42.874;25.320;2023-01-26T14:29:29;97114.19;;;3.72;100.00
20115;BME280;10218;42.874;25.320;2023-01-26T14:31:58;97107.78;;;3.95;100.00
20115;BME280;10218;42.874;25.320;2023-01-26T14:34:28;97104.66;;;4.11;100.00
20115;BME280;10218;42.874;25.320;2023-01-26T14:37:12;97081.41;;;3.74;100.00
20115;BME280;10218;42.874;25.320;2023-01-26T14:39:41;97092.47;;;3.68;100.00
20115;BME280;10218;42.874;25.320;2023-01-26T14:42:16;97080.03;;;3.80;100.00
20115;BME280;10218;42.874;25.320;2023-01-26T14:44:45;97092.28;;;3.30;100.00
20115;BME280;10218;42.874;25.320;2023-01-26T14:47:22;97084.84;;;3.03;100.00
20115;BME280;10218;42.874;25.320;2023-01-26T14:50:00;97084.84;;;3.24;100.00
20115;BME280;10218;42.874;25.320;2023-01-26T14:52:33;97075.59;;;3.29;100.00
20115;BME280;10218;42.874;25.320;2023-01-26T14:55:12;97074.53;;;3.41;100.00
20115;BME280;10218;42.874;25.320;2023-01-26T14:57:43;97065.97;;;3.49;100.00